createdAt,value
2017-03-22T00:00:34.726Z,93.79
2017-03-22T00:01:34.634Z,93.6
2017-03-22T00:02:34.405Z,94.42
2017-03-22T00:03:34.596Z,94.32
2017-03-22T00:04:34.315Z,94.51
2017-03-22T00:05:34.237Z,94.89
2017-03-22T00:06:34.296Z,94.7
2017-03-22T00:07:34.497Z,95.46
2017-03-22T00:08:34.497Z,95.46
2017-03-22T00:09:34.459Z,95.65
2017-03-22T00:10:34.436Z,96.12
2017-03-22T00:11:34.413Z,95.65
2017-03-22T00:12:34.069Z,96.12
2017-03-22T00:13:34.360Z,96.31
2017-03-22T00:14:34.026Z,95.84
2017-03-22T00:15:34.315Z,95.36
2017-03-22T00:16:34.288Z,94.42
2017-03-22T00:17:34.272Z,94.23
2017-03-22T00:18:34.238Z,94.32
2017-03-22T00:19:34.223Z,94.6
2017-03-22T00:20:34.185Z,94.51
2017-03-22T00:21:34.199Z,94.51
2017-03-22T00:22:34.148Z,94.32
2017-03-22T00:23:33.818Z,94.7
2017-03-22T00:24:34.097Z,94.79
2017-03-22T00:25:33.765Z,94.42
2017-03-22T00:26:33.746Z,94.13
2017-03-22T00:27:34.028Z,93.75
2017-03-22T00:28:34.007Z,93.56
2017-03-22T00:29:33.984Z,93.37
2017-03-22T00:30:33.955Z,94.03
2017-03-22T00:31:33.626Z,94.23
2017-03-22T00:32:33.906Z,94.42
2017-03-22T00:33:33.895Z,94.32
2017-03-22T00:34:33.555Z,95.08
2017-03-22T00:35:33.536Z,94.23
2017-03-22T00:36:33.814Z,94.23
2017-03-22T00:37:33.497Z,94.23
2017-03-22T00:38:33.775Z,94.13
2017-03-22T00:39:33.747Z,94.13
2017-03-22T00:40:33.727Z,94.42
2017-03-22T00:41:33.395Z,94.98
2017-03-22T00:42:33.684Z,94.89
2017-03-22T00:43:33.656Z,95.27
2017-03-22T00:44:33.637Z,95.27
2017-03-22T00:45:33.305Z,95.17
2017-03-22T00:46:33.277Z,95.46
2017-03-22T00:47:33.556Z,95.55
2017-03-22T00:48:33.542Z,95.75
2017-03-22T00:49:33.518Z,95.55
2017-03-22T00:50:33.493Z,95.46
2017-03-22T00:51:33.167Z,95.65
2017-03-22T00:52:33.441Z,95.36
2017-03-22T00:53:33.118Z,96.31
2017-03-22T00:54:33.093Z,96.31
2017-03-22T00:55:33.375Z,96.5
2017-03-22T00:56:33.353Z,96.41
2017-03-22T00:57:33.324Z,96.41
2017-03-22T00:58:33.008Z,97.07
2017-03-22T00:59:33.286Z,97.27
2017-03-22T01:00:33.258Z,97.45
2017-03-22T01:01:32.933Z,97.83
2017-03-22T01:02:33.216Z,97.55
2017-03-22T01:03:33.186Z,96.98
2017-03-22T01:04:33.186Z,97.36
2017-03-22T01:05:33.145Z,96.88
2017-03-22T01:06:33.128Z,96.5
2017-03-22T01:07:33.088Z,96.5
2017-03-22T01:08:33.127Z,96.5
2017-03-22T01:09:33.056Z,96.41
2017-03-22T01:10:33.025Z,96.5
2017-03-22T01:11:33.000Z,96.31
2017-03-22T01:12:32.985Z,96.31
2017-03-22T01:13:32.653Z,96.17
2017-03-22T01:14:32.935Z,97.41
2017-03-22T01:15:32.605Z,97.69
2017-03-22T01:16:32.896Z,97.69
2017-03-22T01:17:32.876Z,97.6
2017-03-22T01:18:32.526Z,97.69
2017-03-22T01:19:32.816Z,97.69
2017-03-22T01:20:32.830Z,97.6
2017-03-22T01:21:32.774Z,97.5
2017-03-22T01:22:32.746Z,97.31
2017-03-22T01:23:32.718Z,97.78
2017-03-22T01:24:32.776Z,97.78
2017-03-22T01:25:32.666Z,97.5
2017-03-22T01:26:32.646Z,97.31
2017-03-22T01:27:32.316Z,97.69
2017-03-22T01:28:32.307Z,98.16
2017-03-22T01:29:32.576Z,98.16
2017-03-22T01:30:32.557Z,98.16
2017-03-22T01:31:32.526Z,98.16
2017-03-22T01:32:32.515Z,98.35
2017-03-22T01:33:32.179Z,98.07
2017-03-22T01:34:32.462Z,98.07
2017-03-22T01:35:32.436Z,98.16
2017-03-22T01:36:32.446Z,98.26
2017-03-22T01:37:32.097Z,97.69
2017-03-22T01:38:32.386Z,98.16
2017-03-22T01:39:32.345Z,98.16
2017-03-22T01:40:32.362Z,98.83
2017-03-22T01:41:32.292Z,98.54
2017-03-22T01:42:32.311Z,98.35
2017-03-22T01:43:32.255Z,98.64
2017-03-22T01:44:32.277Z,98.64
2017-03-22T01:45:32.206Z,98.54
2017-03-22T01:46:32.175Z,98.64
2017-03-22T01:47:31.854Z,98.64
2017-03-22T01:48:32.146Z,98.92
2017-03-22T01:49:32.100Z,98.83
2017-03-22T01:50:31.771Z,98.92
2017-03-22T01:51:32.055Z,98.45
2017-03-22T01:52:32.036Z,98.92
2017-03-22T01:53:32.017Z,99.02
2017-03-22T01:54:31.989Z,99.02
2017-03-22T01:55:31.956Z,99.02
2017-03-22T01:56:31.935Z,99.11
2017-03-22T01:57:31.905Z,99.02
2017-03-22T01:58:31.887Z,99.4
2017-03-22T01:59:31.854Z,99.11
2017-03-22T02:00:31.845Z,99.21
2017-03-22T02:01:31.817Z,99.77
2017-03-22T02:02:31.486Z,99.68
2017-03-22T02:03:31.776Z,99.58
2017-03-22T02:04:31.761Z,99.49
2017-03-22T02:05:31.734Z,99.4
2017-03-22T02:06:31.384Z,99.68
2017-03-22T02:07:31.677Z,99.58
2017-03-22T02:08:31.646Z,99.68
2017-03-22T02:09:31.622Z,99.58
2017-03-22T02:10:31.598Z,99.68
2017-03-22T02:11:31.268Z,99.58
2017-03-22T02:12:31.557Z,99.49
2017-03-22T02:13:31.527Z,99.11
2017-03-22T02:14:31.505Z,99.58
2017-03-22T02:15:31.490Z,99.77
2017-03-22T02:16:31.464Z,99.58
2017-03-22T02:17:31.152Z,99.4
2017-03-22T02:18:31.413Z,99.21
2017-03-22T02:19:31.389Z,99.21
2017-03-22T02:20:31.356Z,99.3
2017-03-22T02:21:31.335Z,99.02
2017-03-22T02:22:31.318Z,99.3
2017-03-22T02:23:31.290Z,99.4
2017-03-22T02:24:31.265Z,99.49
2017-03-22T02:25:31.248Z,99.49
2017-03-22T02:26:30.906Z,99.49
2017-03-22T02:27:31.195Z,99.58
2017-03-22T02:28:31.184Z,99.06
2017-03-22T02:29:30.842Z,99.54
2017-03-22T02:30:31.117Z,99.68
2017-03-22T02:31:31.087Z,99.44
2017-03-22T02:32:31.133Z,99.73
2017-03-22T02:33:31.044Z,99.99
2017-03-22T02:34:31.037Z,99.99
2017-03-22T02:35:31.006Z,99.99
2017-03-22T02:36:30.987Z,99.99
2017-03-22T02:37:30.956Z,99.99
2017-03-22T02:38:30.927Z,99.99
2017-03-22T02:39:30.599Z,99.99
2017-03-22T02:40:30.875Z,99.99
2017-03-22T02:41:30.852Z,99.99
2017-03-22T02:42:30.823Z,99.99
2017-03-22T02:43:30.817Z,99.99
2017-03-22T02:44:30.474Z,99.99
2017-03-22T02:45:30.751Z,99.99
2017-03-22T02:46:30.730Z,99.99
2017-03-22T02:47:30.720Z,99.99
2017-03-22T02:48:30.679Z,99.99
2017-03-22T02:49:30.372Z,99.99
2017-03-22T02:50:30.636Z,99.99
2017-03-22T02:51:30.605Z,99.99
2017-03-22T02:52:30.579Z,99.99
2017-03-22T02:53:30.567Z,99.99
2017-03-22T02:54:30.527Z,99.99
2017-03-22T02:55:30.507Z,99.99
2017-03-22T02:56:30.486Z,99.99
2017-03-22T02:57:30.147Z,99.99
2017-03-22T02:58:30.436Z,99.99
2017-03-22T02:59:30.108Z,99.99
2017-03-22T03:00:30.382Z,99.99
2017-03-22T03:01:30.366Z,99.63
2017-03-22T03:02:30.335Z,99.54
2017-03-22T03:03:30.317Z,99.63
2017-03-22T03:04:30.300Z,98.87
2017-03-22T03:05:29.956Z,98.49
2017-03-22T03:06:30.237Z,99.06
2017-03-22T03:07:30.228Z,98.78
2017-03-22T03:08:30.194Z,99.35
2017-03-22T03:09:29.867Z,99.06
2017-03-22T03:10:30.137Z,99.44
2017-03-22T03:11:30.116Z,99.63
2017-03-22T03:12:30.085Z,99.99
2017-03-22T03:13:29.766Z,99.91
2017-03-22T03:14:29.750Z,99.91
2017-03-22T03:15:30.017Z,99.99
2017-03-22T03:16:29.987Z,99.99
2017-03-22T03:17:29.670Z,99.63
2017-03-22T03:18:29.638Z,99.99
2017-03-22T03:19:29.926Z,99.63
2017-03-22T03:20:29.896Z,99.63
2017-03-22T03:21:29.556Z,99.99
2017-03-22T03:22:29.847Z,99.99
2017-03-22T03:23:29.516Z,99.99
2017-03-22T03:24:29.486Z,99.91
2017-03-22T03:25:29.777Z,99.91
2017-03-22T03:26:29.436Z,99.99
2017-03-22T03:27:29.737Z,99.99
2017-03-22T03:28:29.386Z,99.35
2017-03-22T03:29:29.679Z,99.35
2017-03-22T03:30:29.656Z,99.63
2017-03-22T03:31:29.628Z,99.06
2017-03-22T03:32:29.626Z,99.06
2017-03-22T03:33:29.268Z,99.35
2017-03-22T03:34:29.556Z,99.54
2017-03-22T03:35:29.517Z,99.99
2017-03-22T03:36:29.216Z,99.91
2017-03-22T03:37:29.479Z,99.99
2017-03-22T03:38:29.468Z,99.99
2017-03-22T03:39:29.436Z,99.99
2017-03-22T03:40:29.470Z,99.99
2017-03-22T03:41:29.372Z,99.99
2017-03-22T03:42:29.057Z,99.99
2017-03-22T03:43:29.328Z,99.99
2017-03-22T03:44:29.007Z,99.99
2017-03-22T03:45:29.288Z,99.99
2017-03-22T03:46:29.327Z,99.99
2017-03-22T03:47:28.928Z,99.99
2017-03-22T03:48:29.213Z,99.99
2017-03-22T03:49:28.885Z,99.99
2017-03-22T03:50:28.848Z,99.99
2017-03-22T03:51:29.137Z,99.99
2017-03-22T03:52:29.116Z,99.99
2017-03-22T03:53:28.778Z,99.99
2017-03-22T03:54:28.841Z,99.99
2017-03-22T03:55:29.036Z,99.99
2017-03-22T03:56:29.006Z,99.99
2017-03-22T03:57:28.686Z,99.99
2017-03-22T03:58:28.971Z,99.99
2017-03-22T03:59:28.939Z,99.99
2017-03-22T04:00:28.906Z,99.99
2017-03-22T04:01:28.896Z,99.99
2017-03-22T04:02:28.867Z,99.99
2017-03-22T04:03:28.537Z,99.99
2017-03-22T04:04:28.579Z,99.99
2017-03-22T04:05:28.803Z,99.99
2017-03-22T04:06:28.770Z,99.99
2017-03-22T04:07:28.445Z,99.99
2017-03-22T04:08:28.717Z,99.99
2017-03-22T04:09:28.694Z,99.99
2017-03-22T04:10:28.364Z,99.99
2017-03-22T04:11:28.337Z,99.99
2017-03-22T04:12:28.309Z,99.99
2017-03-22T04:13:28.603Z,99.99
2017-03-22T04:14:28.577Z,99.99
2017-03-22T04:15:28.545Z,99.99
2017-03-22T04:16:28.516Z,99.99
2017-03-22T04:17:28.487Z,99.99
2017-03-22T04:18:28.471Z,99.99
2017-03-22T04:19:28.448Z,99.99
2017-03-22T04:20:28.415Z,99.99
2017-03-22T04:21:28.083Z,99.99
2017-03-22T04:22:28.368Z,99.99
2017-03-22T04:23:28.048Z,99.99
2017-03-22T04:24:28.321Z,99.99
2017-03-22T04:25:28.294Z,99.99
2017-03-22T04:26:28.279Z,99.99
2017-03-22T04:27:28.243Z,99.99
2017-03-22T04:28:28.216Z,99.99
2017-03-22T04:29:28.199Z,99.99
2017-03-22T04:30:28.177Z,99.99
2017-03-22T04:31:27.837Z,99.99
2017-03-22T04:32:28.130Z,99.99
2017-03-22T04:33:28.098Z,99.99
2017-03-22T04:34:28.078Z,99.99
2017-03-22T04:35:28.047Z,99.99
2017-03-22T04:36:28.017Z,99.99
2017-03-22T04:37:27.997Z,99.99
2017-03-22T04:38:27.986Z,99.99
2017-03-22T04:39:27.957Z,99.99
2017-03-22T04:40:27.614Z,99.99
2017-03-22T04:41:27.587Z,99.99
2017-03-22T04:42:27.877Z,99.99
2017-03-22T04:43:27.846Z,99.99
2017-03-22T04:44:27.826Z,99.99
2017-03-22T04:45:27.797Z,99.99
2017-03-22T04:46:27.779Z,99.99
2017-03-22T04:47:27.757Z,99.99
2017-03-22T04:48:27.743Z,99.99
2017-03-22T04:49:27.697Z,99.99
2017-03-22T04:50:27.677Z,99.99
2017-03-22T04:51:27.647Z,99.99
2017-03-22T04:52:27.638Z,99.99
2017-03-22T04:53:27.608Z,99.99
2017-03-22T04:54:27.587Z,99.99
2017-03-22T04:55:27.593Z,99.99
2017-03-22T04:56:27.527Z,99.99
2017-03-22T04:57:27.569Z,99.99
2017-03-22T04:58:27.480Z,99.99
2017-03-22T04:59:27.518Z,99.99
2017-03-22T05:00:27.430Z,99.99
2017-03-22T05:01:27.488Z,99.99
2017-03-22T05:02:27.377Z,99.99
2017-03-22T05:03:27.389Z,99.99
2017-03-22T05:04:27.326Z,99.99
2017-03-22T05:05:27.304Z,99.99
2017-03-22T05:06:26.967Z,99.99
2017-03-22T05:07:26.957Z,99.99
2017-03-22T05:08:27.216Z,99.99
2017-03-22T05:09:27.308Z,99.99
2017-03-22T05:10:27.173Z,99.99
2017-03-22T05:11:26.849Z,99.99
2017-03-22T05:12:26.817Z,99.99
2017-03-22T05:13:27.097Z,99.99
2017-03-22T05:14:27.076Z,99.99
2017-03-22T05:15:27.068Z,99.99
2017-03-22T05:16:27.026Z,99.99
2017-03-22T05:17:26.999Z,99.99
2017-03-22T05:18:26.675Z,99.99
2017-03-22T05:19:26.691Z,99.99
2017-03-22T05:20:26.616Z,99.99
2017-03-22T05:21:26.907Z,99.99
2017-03-22T05:22:26.889Z,99.99
2017-03-22T05:23:26.845Z,99.99
2017-03-22T05:24:26.817Z,99.99
2017-03-22T05:25:26.794Z,99.99
2017-03-22T05:26:26.769Z,99.99
2017-03-22T05:27:26.494Z,99.99
2017-03-22T05:28:26.727Z,99.99
2017-03-22T05:29:26.697Z,99.99
2017-03-22T05:30:26.666Z,99.99
2017-03-22T05:31:26.645Z,99.99
2017-03-22T05:32:26.619Z,99.99
2017-03-22T05:33:26.652Z,99.99
2017-03-22T05:34:26.257Z,99.99
2017-03-22T05:35:26.543Z,99.99
2017-03-22T05:36:26.518Z,99.99
2017-03-22T05:37:26.191Z,99.99
2017-03-22T05:38:26.467Z,99.99
2017-03-22T05:39:26.187Z,99.99
2017-03-22T05:40:26.418Z,99.99
2017-03-22T05:41:26.384Z,99.99
2017-03-22T05:42:26.376Z,99.99
2017-03-22T05:43:26.355Z,99.99
2017-03-22T05:44:26.010Z,99.99
2017-03-22T05:45:26.291Z,99.99
2017-03-22T05:46:26.277Z,99.99
2017-03-22T05:47:26.244Z,99.99
2017-03-22T05:48:26.218Z,99.99
2017-03-22T05:49:26.191Z,99.99
2017-03-22T05:50:26.157Z,99.99
2017-03-22T05:51:26.147Z,99.99
2017-03-22T05:52:25.809Z,99.99
2017-03-22T05:53:26.106Z,99.99
2017-03-22T05:54:25.766Z,99.99
2017-03-22T05:55:26.063Z,99.99
2017-03-22T05:56:26.030Z,99.99
2017-03-22T05:57:25.996Z,99.99
2017-03-22T05:58:25.667Z,99.99
2017-03-22T05:59:25.947Z,99.99
2017-03-22T06:00:25.606Z,99.99
2017-03-22T06:01:25.578Z,99.99
2017-03-22T06:02:25.876Z,99.99
2017-03-22T06:03:25.837Z,99.99
2017-03-22T06:04:25.517Z,99.99
2017-03-22T06:05:25.795Z,99.99
2017-03-22T06:06:25.768Z,99.99
2017-03-22T06:07:25.744Z,99.99
2017-03-22T06:08:25.716Z,99.99
2017-03-22T06:09:25.692Z,99.99
2017-03-22T06:10:25.663Z,99.99
2017-03-22T06:11:25.636Z,99.99
2017-03-22T06:12:25.728Z,99.99
2017-03-22T06:13:25.591Z,99.99
2017-03-22T06:14:25.660Z,99.99
2017-03-22T06:15:25.537Z,99.99
2017-03-22T06:16:25.660Z,99.99
2017-03-22T06:17:25.485Z,99.99
2017-03-22T06:18:25.564Z,99.99
2017-03-22T06:19:25.445Z,99.99
2017-03-22T06:20:25.425Z,99.99
2017-03-22T06:21:25.390Z,99.99
2017-03-22T06:22:25.135Z,99.99
2017-03-22T06:23:25.340Z,99.99
2017-03-22T06:24:25.397Z,99.99
2017-03-22T06:25:25.286Z,99.99
2017-03-22T06:26:25.387Z,99.99
2017-03-22T06:27:25.246Z,99.99
2017-03-22T06:28:25.230Z,99.99
2017-03-22T06:29:24.886Z,99.99
2017-03-22T06:30:25.216Z,99.99
2017-03-22T06:31:25.153Z,99.99
2017-03-22T06:32:25.154Z,99.99
2017-03-22T06:33:25.095Z,99.99
2017-03-22T06:34:25.079Z,99.99
2017-03-22T06:35:25.045Z,99.99
2017-03-22T06:36:25.126Z,99.99
2017-03-22T06:37:24.998Z,99.99
2017-03-22T06:38:24.756Z,99.99
2017-03-22T06:39:24.947Z,99.99
2017-03-22T06:40:24.926Z,99.99
2017-03-22T06:41:24.900Z,99.99
2017-03-22T06:42:24.876Z,99.99
2017-03-22T06:43:24.849Z,99.99
2017-03-22T06:44:24.825Z,99.99
2017-03-22T06:45:24.796Z,99.99
2017-03-22T06:46:24.882Z,99.99
2017-03-22T06:47:24.445Z,99.99
2017-03-22T06:48:24.747Z,99.99
2017-03-22T06:49:24.708Z,99.99
2017-03-22T06:50:24.676Z,99.99
2017-03-22T06:51:24.346Z,99.99
2017-03-22T06:52:24.625Z,99.99
2017-03-22T06:53:24.605Z,99.99
2017-03-22T06:54:24.282Z,99.99
2017-03-22T06:55:24.245Z,99.99
2017-03-22T06:56:24.531Z,99.99
2017-03-22T06:57:25.066Z,99.99
2017-03-22T06:58:24.495Z,99.99
2017-03-22T06:59:24.465Z,99.99
2017-03-22T07:00:24.435Z,99.99
2017-03-22T07:01:24.409Z,99.99
2017-03-22T07:02:24.395Z,98.21
2017-03-22T07:03:24.372Z,92.65
2017-03-22T07:04:24.360Z,89.42
2017-03-22T07:05:24.314Z,87.6
2017-03-22T07:06:24.286Z,86.9
2017-03-22T07:07:24.267Z,87.65
2017-03-22T07:08:23.940Z,90.14
2017-03-22T07:09:23.926Z,90.99
2017-03-22T07:10:23.895Z,89.51
2017-03-22T07:11:23.875Z,88.32
2017-03-22T07:12:23.849Z,88.04
2017-03-22T07:13:23.825Z,87.18
2017-03-22T07:14:24.116Z,87.85
2017-03-22T07:15:24.094Z,88.04
2017-03-22T07:16:24.068Z,87.65
2017-03-22T07:17:24.050Z,88.46
2017-03-22T07:18:23.726Z,88.28
2017-03-22T07:19:24.015Z,88.28
2017-03-22T07:20:23.984Z,86.8
2017-03-22T07:21:23.965Z,84.69
2017-03-22T07:22:23.943Z,82.83
2017-03-22T07:23:23.621Z,82.26
2017-03-22T07:24:23.905Z,80.58
2017-03-22T07:25:23.895Z,79.38
2017-03-22T07:26:23.866Z,77.86
2017-03-22T07:27:23.834Z,76.37
2017-03-22T07:28:23.836Z,75.35
2017-03-22T07:29:23.494Z,75.07
2017-03-22T07:30:23.784Z,74.21
2017-03-22T07:31:23.755Z,74.78
2017-03-22T07:32:23.747Z,76.23
2017-03-22T07:33:23.423Z,78.49
2017-03-22T07:34:23.701Z,79.06
2017-03-22T07:35:23.375Z,78.49
2017-03-22T07:36:23.365Z,76.84
2017-03-22T07:37:23.345Z,75.54
2017-03-22T07:38:23.631Z,74.59
2017-03-22T07:39:23.637Z,74.05
2017-03-22T07:40:23.584Z,74.19
2017-03-22T07:41:23.602Z,74.84
2017-03-22T07:42:23.550Z,75.32
2017-03-22T07:43:23.585Z,75.16
2017-03-22T07:44:23.526Z,75.7
2017-03-22T07:45:23.493Z,75.98
2017-03-22T07:46:23.176Z,77.03
2017-03-22T07:47:23.471Z,77.53
2017-03-22T07:48:23.446Z,77.28
2017-03-22T07:49:23.426Z,77.67
2017-03-22T07:50:23.418Z,79.06
2017-03-22T07:51:23.392Z,79.53
2017-03-22T07:52:23.080Z,79.82
2017-03-22T07:53:23.374Z,80.64
2017-03-22T07:54:23.363Z,80.54
2017-03-22T07:55:23.336Z,80.35
2017-03-22T07:56:23.324Z,79.35
2017-03-22T07:57:23.005Z,79.78
2017-03-22T07:58:23.297Z,79.06
2017-03-22T07:59:23.287Z,77.57
2017-03-22T08:00:23.273Z,77.38
2017-03-22T08:01:23.254Z,76.14
2017-03-22T08:02:23.235Z,76.23
2017-03-22T08:03:23.245Z,75.98
2017-03-22T08:04:23.004Z,76.08
2017-03-22T08:05:23.205Z,76.71
2017-03-22T08:06:23.189Z,77.38
2017-03-22T08:07:23.185Z,77.53
2017-03-22T08:08:23.177Z,77.25
2017-03-22T08:09:23.175Z,75.7
2017-03-22T08:10:23.165Z,73.1
2017-03-22T08:11:23.146Z,71.7
2017-03-22T08:12:22.845Z,72.39
2017-03-22T08:13:22.820Z,71.72
2017-03-22T08:14:22.815Z,71.47
2017-03-22T08:15:23.105Z,70.46
2017-03-22T08:16:23.122Z,68.62
2017-03-22T08:17:23.090Z,67.31
2017-03-22T08:18:22.773Z,66.54
2017-03-22T08:19:23.081Z,65.14
2017-03-22T08:20:23.126Z,64.28
2017-03-22T08:21:22.760Z,63.32
2017-03-22T08:22:23.074Z,62.16
2017-03-22T08:23:23.036Z,61.49
2017-03-22T08:24:23.114Z,60.89
2017-03-22T08:25:23.087Z,61.18
2017-03-22T08:26:23.042Z,61.43
2017-03-22T08:27:23.036Z,61.24
2017-03-22T08:28:23.056Z,60.7
2017-03-22T08:29:23.055Z,60.22
2017-03-22T08:30:23.016Z,60.57
2017-03-22T08:31:23.098Z,61.37
2017-03-22T08:32:22.731Z,62.71
2017-03-22T08:33:23.064Z,63.6
2017-03-22T08:34:22.968Z,63.13
2017-03-22T08:35:22.659Z,62.9
2017-03-22T08:36:22.965Z,61.91
2017-03-22T08:37:22.944Z,61.46
2017-03-22T08:38:22.945Z,62.36
2017-03-22T08:39:22.936Z,61.4
2017-03-22T08:40:22.943Z,60.6
2017-03-22T08:41:22.926Z,59.96
2017-03-22T08:42:22.942Z,58.39
2017-03-22T08:43:22.917Z,57.81
2017-03-22T08:44:22.603Z,55.56
2017-03-22T08:45:22.698Z,55.53
2017-03-22T08:46:22.589Z,56.21
2017-03-22T08:47:22.589Z,57.28
2017-03-22T08:48:22.916Z,57.5
2017-03-22T08:49:22.874Z,57.07
2017-03-22T08:50:22.564Z,56.98
2017-03-22T08:51:22.873Z,57.75
2017-03-22T08:52:22.873Z,57.77
2017-03-22T08:53:22.873Z,57.06
2017-03-22T08:54:22.866Z,55.55
2017-03-22T08:55:22.848Z,55.96
2017-03-22T08:56:22.962Z,55.9
2017-03-22T08:57:22.856Z,56.03
2017-03-22T08:58:22.537Z,56.67
2017-03-22T08:59:22.967Z,56.12
2017-03-22T09:00:22.824Z,57.32
2017-03-22T09:01:22.576Z,57.22
2017-03-22T09:02:22.829Z,56.84
2017-03-22T09:03:22.864Z,56.67
2017-03-22T09:04:22.874Z,56.38
2017-03-22T09:05:22.816Z,55.74
2017-03-22T09:06:22.819Z,55.74
2017-03-22T09:07:22.819Z,55.9
2017-03-22T09:08:22.494Z,55.65
2017-03-22T09:09:22.793Z,55.77
2017-03-22T09:10:22.792Z,56.26
2017-03-22T09:11:22.797Z,57.65
2017-03-22T09:12:22.483Z,58.48
2017-03-22T09:13:22.489Z,57.58
2017-03-22T09:14:22.789Z,57.03
2017-03-22T09:15:22.784Z,56.96
2017-03-22T09:16:22.557Z,57.03
2017-03-22T09:17:22.823Z,57.39
2017-03-22T09:18:22.752Z,56.93
2017-03-22T09:19:22.765Z,56.87
2017-03-22T09:20:22.755Z,56.1
2017-03-22T09:21:22.754Z,56.29
2017-03-22T09:22:22.754Z,55.68
2017-03-22T09:23:22.744Z,55.9
2017-03-22T09:24:22.735Z,56.99
2017-03-22T09:25:22.752Z,55.65
2017-03-22T09:26:22.856Z,54.8
2017-03-22T09:27:22.728Z,54.3
2017-03-22T09:28:22.762Z,55
2017-03-22T09:29:22.737Z,55.57
2017-03-22T09:30:22.727Z,54.83
2017-03-22T09:31:22.727Z,52.33
2017-03-22T09:32:22.701Z,52.69
2017-03-22T09:33:22.764Z,53.03
2017-03-22T09:34:22.718Z,52.36
2017-03-22T09:35:22.720Z,53.68
2017-03-22T09:36:22.699Z,54.39
2017-03-22T09:37:22.396Z,53.78
2017-03-22T09:38:22.694Z,53.3
2017-03-22T09:39:22.737Z,53.06
2017-03-22T09:40:22.695Z,53.78
2017-03-22T09:41:22.686Z,55.55
2017-03-22T09:42:22.677Z,55.62
2017-03-22T09:43:22.700Z,54.23
2017-03-22T09:44:22.355Z,53.44
2017-03-22T09:45:22.645Z,53.99
2017-03-22T09:46:22.665Z,53.99
2017-03-22T09:47:22.335Z,55.36
2017-03-22T09:48:22.637Z,55.4
2017-03-22T09:49:22.626Z,54.56
2017-03-22T09:50:22.632Z,53.82
2017-03-22T09:51:22.311Z,52.22
2017-03-22T09:52:22.613Z,52.38
2017-03-22T09:53:22.605Z,52.09
2017-03-22T09:54:22.605Z,51.81
2017-03-22T09:55:22.592Z,51.45
2017-03-22T09:56:22.606Z,51.25
2017-03-22T09:57:22.578Z,50.15
2017-03-22T09:58:22.578Z,49.93
2017-03-22T09:59:22.578Z,50.01
2017-03-22T10:00:22.565Z,49.79
2017-03-22T10:01:22.260Z,49.98
2017-03-22T10:02:22.554Z,50.17
2017-03-22T10:03:22.537Z,50.08
2017-03-22T10:04:22.544Z,49.5
2017-03-22T10:05:22.537Z,49.41
2017-03-22T10:06:22.215Z,49.15
2017-03-22T10:07:22.517Z,48.59
2017-03-22T10:08:22.516Z,47.85
2017-03-22T10:09:22.498Z,47.97
2017-03-22T10:10:22.546Z,47.8
2017-03-22T10:11:22.496Z,46.4
2017-03-22T10:12:22.478Z,45.46
2017-03-22T10:13:22.466Z,44.49
2017-03-22T10:14:22.469Z,45.2
2017-03-22T10:15:22.449Z,46.38
2017-03-22T10:16:22.446Z,46.89
2017-03-22T10:17:22.449Z,46.62
2017-03-22T10:18:22.458Z,46.79
2017-03-22T10:19:22.424Z,47.17
2017-03-22T10:20:22.433Z,47.3
2017-03-22T10:21:22.416Z,46.74
2017-03-22T10:22:22.413Z,47.2
2017-03-22T10:23:22.407Z,47.08
2017-03-22T10:24:22.387Z,47.17
2017-03-22T10:25:22.388Z,48.78
2017-03-22T10:26:22.085Z,50.1
2017-03-22T10:27:22.355Z,50.48
2017-03-22T10:28:22.357Z,49.93
2017-03-22T10:29:22.347Z,49.69
2017-03-22T10:30:22.355Z,49.19
2017-03-22T10:31:22.324Z,48.74
2017-03-22T10:32:22.019Z,47.99
2017-03-22T10:33:22.306Z,49.12
2017-03-22T10:34:22.296Z,51.58
2017-03-22T10:35:22.289Z,52.34
2017-03-22T10:36:21.973Z,52.66
2017-03-22T10:37:22.274Z,51.99
2017-03-22T10:38:22.260Z,50.82
2017-03-22T10:39:21.938Z,50.73
2017-03-22T10:40:22.257Z,50.75
2017-03-22T10:41:22.226Z,51.9
2017-03-22T10:42:21.900Z,52.45
2017-03-22T10:43:22.209Z,53.03
2017-03-22T10:44:22.196Z,54.03
2017-03-22T10:45:22.177Z,53.67
2017-03-22T10:46:22.176Z,53.34
2017-03-22T10:47:21.849Z,53.17
2017-03-22T10:48:22.138Z,53.15
2017-03-22T10:49:22.140Z,54.53
2017-03-22T10:50:21.817Z,55.63
2017-03-22T10:51:22.106Z,55.4
2017-03-22T10:52:21.786Z,55.68
2017-03-22T10:53:22.087Z,55.85
2017-03-22T10:54:21.765Z,54.56
2017-03-22T10:55:22.055Z,53.75
2017-03-22T10:56:22.049Z,53.61
2017-03-22T10:57:22.069Z,54.11
2017-03-22T10:58:22.026Z,54.58
2017-03-22T10:59:22.010Z,54.94
2017-03-22T11:00:21.987Z,54.49
2017-03-22T11:01:21.987Z,55.11
2017-03-22T11:02:21.977Z,54.91
2017-03-22T11:03:21.957Z,55.21
2017-03-22T11:04:21.943Z,54.68
2017-03-22T11:05:21.933Z,54.06
2017-03-22T11:06:21.941Z,52.65
2017-03-22T11:07:21.906Z,51.95
2017-03-22T11:08:21.893Z,52.07
2017-03-22T11:09:21.887Z,52.23
2017-03-22T11:10:21.875Z,52.57
2017-03-22T11:11:21.865Z,53.96
2017-03-22T11:12:21.870Z,55.16
2017-03-22T11:13:21.836Z,55.29
2017-03-22T11:14:21.820Z,55.45
2017-03-22T11:15:21.806Z,56.89
2017-03-22T11:16:21.787Z,56.89
2017-03-22T11:17:21.472Z,56.53
2017-03-22T11:18:21.456Z,55.86
2017-03-22T11:19:21.746Z,56.66
2017-03-22T11:20:21.737Z,56.31
2017-03-22T11:21:21.727Z,56.29
2017-03-22T11:22:21.714Z,56.02
2017-03-22T11:23:21.696Z,54.19
2017-03-22T11:24:21.689Z,53.45
2017-03-22T11:25:21.363Z,54.35
2017-03-22T11:26:21.657Z,54
2017-03-22T11:27:21.656Z,53.47
2017-03-22T11:28:21.635Z,52.12
2017-03-22T11:29:21.616Z,52.77
2017-03-22T11:30:21.304Z,54.57
2017-03-22T11:31:21.586Z,54
2017-03-22T11:32:21.578Z,54.5
2017-03-22T11:33:21.568Z,55.41
2017-03-22T11:34:21.253Z,54.57
2017-03-22T11:35:21.541Z,55.34
2017-03-22T11:36:21.216Z,55.12
2017-03-22T11:37:21.215Z,54.74
2017-03-22T11:38:21.198Z,54.16
2017-03-22T11:39:21.488Z,55.63
2017-03-22T11:40:21.168Z,56.63
2017-03-22T11:41:21.465Z,58.42
2017-03-22T11:42:21.446Z,59.93
2017-03-22T11:43:21.436Z,60.86
2017-03-22T11:44:21.426Z,61.24
2017-03-22T11:45:21.408Z,61.6
2017-03-22T11:46:21.406Z,61.63
2017-03-22T11:47:21.079Z,61.5
2017-03-22T11:48:21.378Z,61.11
2017-03-22T11:49:21.358Z,61.4
2017-03-22T11:50:21.045Z,62.01
2017-03-22T11:51:21.323Z,63.03
2017-03-22T11:52:21.317Z,62.62
2017-03-22T11:53:21.007Z,62.84
2017-03-22T11:54:20.970Z,63.26
2017-03-22T11:55:21.268Z,62.97
2017-03-22T11:56:21.259Z,63.67
2017-03-22T11:57:21.028Z,62.59
2017-03-22T11:58:21.211Z,62.97
2017-03-22T11:59:21.216Z,63.26
2017-03-22T12:00:21.188Z,64.91
2017-03-22T12:01:21.172Z,65.01
2017-03-22T12:02:20.859Z,65.68
2017-03-22T12:03:21.148Z,65.48
2017-03-22T12:04:21.138Z,66.54
2017-03-22T12:05:21.110Z,66.79
2017-03-22T12:06:20.797Z,66.83
2017-03-22T12:07:21.086Z,65.71
2017-03-22T12:08:21.076Z,65.42
2017-03-22T12:09:21.051Z,65.71
2017-03-22T12:10:20.745Z,65.71
2017-03-22T12:11:21.146Z,66.57
2017-03-22T12:12:20.696Z,67.34
2017-03-22T12:13:20.999Z,67.24
2017-03-22T12:14:20.997Z,67.47
2017-03-22T12:15:20.665Z,67.34
2017-03-22T12:16:20.644Z,67.43
2017-03-22T12:17:21.007Z,67.63
2017-03-22T12:18:20.596Z,67.72
2017-03-22T12:19:20.896Z,67.72
2017-03-22T12:20:20.875Z,67.97
2017-03-22T12:21:20.856Z,68.64
2017-03-22T12:22:20.855Z,68.64
2017-03-22T12:23:20.825Z,68.16
2017-03-22T12:24:20.851Z,67.78
2017-03-22T12:25:20.821Z,67.78
2017-03-22T12:26:20.767Z,67.49
2017-03-22T12:27:20.766Z,67.27
2017-03-22T12:28:20.759Z,66.41
2017-03-22T12:29:20.729Z,66.7
2017-03-22T12:30:20.752Z,66.76
2017-03-22T12:31:20.695Z,66.57
2017-03-22T12:32:20.770Z,67.11
2017-03-22T12:33:20.655Z,67.21
2017-03-22T12:34:20.335Z,67.02
2017-03-22T12:35:20.317Z,66.96
2017-03-22T12:36:20.608Z,67.24
2017-03-22T12:37:20.598Z,66.57
2017-03-22T12:38:20.285Z,66.13
2017-03-22T12:39:20.247Z,65.74
2017-03-22T12:40:20.237Z,65.65
2017-03-22T12:41:20.526Z,66.57
2017-03-22T12:42:20.536Z,66.86
2017-03-22T12:43:20.493Z,65.74
2017-03-22T12:44:20.496Z,65.58
2017-03-22T12:45:20.478Z,65.65
2017-03-22T12:46:20.456Z,65.74
2017-03-22T12:47:20.118Z,65.26
2017-03-22T12:48:20.430Z,65.49
2017-03-22T12:49:20.406Z,66.13
2017-03-22T12:50:20.376Z,65.65
2017-03-22T12:51:20.057Z,65.65
2017-03-22T12:52:20.346Z,64.28
2017-03-22T12:53:20.326Z,63.86
2017-03-22T12:54:20.360Z,64.82